createdAt,value
2023-02-13T00:00:49.544Z,58.33
2023-02-13T00:03:16.438Z,57.33
2023-02-13T00:05:43.449Z,55.75
2023-02-13T00:08:10.435Z,61.53
2023-02-13T00:10:37.842Z,60.63
2023-02-13T00:13:04.807Z,61.55
2023-02-13T00:15:32.772Z,59.33
2023-02-13T00:18:00.262Z,64.55
2023-02-13T00:20:28.319Z,59.22
2023-02-13T00:22:57.079Z,65.25
2023-02-13T00:25:25.463Z,62.13
2023-02-13T00:27:55.862Z,67.40
2023-02-13T00:30:24.099Z,65.13
2023-02-13T00:32:51.750Z,67.13
2023-02-13T00:35:19.073Z,65.78
2023-02-13T00:37:46.051Z,64.47
2023-02-13T00:40:13.426Z,66.43
2023-02-13T00:42:41.231Z,65.57
2023-02-13T00:45:09.892Z,64.85
2023-02-13T00:47:37.109Z,67.30
2023-02-13T00:50:04.609Z,65.32
2023-02-13T00:52:31.793Z,68.28
2023-02-13T00:54:59.080Z,66.82
2023-02-13T00:57:26.917Z,67.32
2023-02-13T00:59:54.195Z,67.32
2023-02-13T01:02:22.532Z,66.47
2023-02-13T01:04:49.959Z,66.43
2023-02-13T01:07:20.184Z,62.47
2023-02-13T01:09:50.137Z,67.20
2023-02-13T01:12:17.457Z,68.95
2023-02-13T01:14:45.625Z,61.92
2023-02-13T01:17:12.578Z,63.85
2023-02-13T01:19:41.255Z,60.60
2023-02-13T01:22:10.022Z,64.68
2023-02-13T01:24:37.031Z,66.10
2023-02-13T01:27:04.380Z,65.53
2023-02-13T01:29:32.100Z,64.43
2023-02-13T01:32:03.055Z,64.00
2023-02-13T01:34:33.335Z,63.58
2023-02-13T01:37:00.495Z,63.30
2023-02-13T01:39:27.459Z,62.40
2023-02-13T01:41:54.950Z,61.85
2023-02-13T01:44:49.883Z,62.47
2023-02-13T01:47:29.689Z,66.47
2023-02-13T01:50:26.639Z,60.60
2023-02-13T01:53:03.698Z,60.63
2023-02-13T01:55:35.832Z,56.10
2023-02-13T01:58:10.902Z,59.00
2023-02-13T02:00:39.557Z,62.15
2023-02-13T02:03:14.324Z,60.60
2023-02-13T02:05:43.435Z,61.80
2023-02-13T02:08:12.706Z,56.53
2023-02-13T02:10:41.435Z,59.38
2023-02-13T02:13:15.244Z,57.90
2023-02-13T02:15:45.275Z,61.50
2023-02-13T02:18:24.646Z,60.05
2023-02-13T02:21:06.839Z,56.45
2023-02-13T02:24:15.926Z,56.05
2023-02-13T02:27:05.676Z,59.33
2023-02-13T02:29:56.202Z,57.00
2023-02-13T02:32:59.303Z,63.72
2023-02-13T02:35:42.108Z,59.25
2023-02-13T02:38:27.344Z,59.78
2023-02-13T02:41:45.364Z,58.28
2023-02-13T02:44:28.783Z,58.47
2023-02-13T02:47:43.729Z,61.63
2023-02-13T02:50:29.526Z,60.38
2023-02-13T02:53:04.741Z,56.33
2023-02-13T02:55:39.414Z,57.85
2023-02-13T02:58:41.180Z,58.72
2023-02-13T03:01:43.449Z,56.90
2023-02-13T03:04:45.820Z,60.25
2023-02-13T03:07:17.511Z,57.40
2023-02-13T03:10:09.759Z,59.53
2023-02-13T03:13:00.992Z,59.33
2023-02-13T03:15:29.019Z,56.22
2023-02-13T03:18:16.753Z,58.58
2023-02-13T03:21:10.780Z,60.08
2023-02-13T03:23:49.310Z,63.72
2023-02-13T03:26:33.403Z,57.50
2023-02-13T03:29:54.146Z,61.50
2023-02-13T03:32:36.633Z,56.38
2023-02-13T03:35:39.531Z,54.97
2023-02-13T03:38:19.513Z,56.60
2023-02-13T03:41:30.551Z,60.33
2023-02-13T03:44:15.111Z,58.95
2023-02-13T03:46:49.560Z,64.13
2023-02-13T03:49:48.482Z,61.10
2023-02-13T03:52:31.835Z,66.43
2023-02-13T03:55:25.996Z,63.55
2023-02-13T03:58:18.656Z,64.03
2023-02-13T04:00:52.052Z,63.50
2023-02-13T04:03:35.690Z,63.35
2023-02-13T04:06:17.073Z,62.00
2023-02-13T04:08:44.583Z,63.78
2023-02-13T04:11:33.093Z,61.75
2023-02-13T04:14:08.263Z,65.25
2023-02-13T04:16:45.046Z,61.75
2023-02-13T04:19:12.968Z,64.25
2023-02-13T04:21:40.746Z,61.90
2023-02-13T04:24:08.799Z,64.38
2023-02-13T04:26:39.821Z,62.60
2023-02-13T04:29:09.415Z,65.88
2023-02-13T04:31:36.509Z,63.58
2023-02-13T04:34:04.088Z,61.53
2023-02-13T04:36:32.688Z,64.00
2023-02-13T04:38:59.774Z,65.60
2023-02-13T04:41:26.852Z,63.50
2023-02-13T04:43:55.541Z,68.57
2023-02-13T04:46:22.553Z,66.03
2023-02-13T04:48:49.676Z,68.78
2023-02-13T04:51:16.667Z,64.65
2023-02-13T04:53:44.892Z,67.88
2023-02-13T04:56:12.019Z,68.93
2023-02-13T04:58:39.362Z,65.95
2023-02-13T05:01:16.988Z,68.55
2023-02-13T05:03:44.338Z,73.72
2023-02-13T05:06:11.349Z,73.40
2023-02-13T05:08:38.482Z,68.05
2023-02-13T05:11:06.049Z,64.55
2023-02-13T05:13:33.725Z,70.80
2023-02-13T05:16:12.899Z,63.05
2023-02-13T05:18:40.056Z,65.95
2023-02-13T05:21:25.792Z,66.22
2023-02-13T05:26:21.079Z,72.82
2023-02-13T05:29:14.892Z,60.42
2023-02-13T05:31:42.104Z,65.53
2023-02-13T05:34:09.246Z,69.88
2023-02-13T05:36:40.237Z,72.13
2023-02-13T05:39:10.297Z,66.20
2023-02-13T05:41:38.307Z,68.35
2023-02-13T05:44:08.067Z,69.47
2023-02-13T05:46:37.999Z,70.53
2023-02-13T05:49:07.981Z,72.40
2023-02-13T05:51:35.336Z,72.65
2023-02-13T05:54:05.688Z,71.00
2023-02-13T05:56:32.980Z,70.30
2023-02-13T05:59:00.143Z,74.80
2023-02-13T06:01:27.305Z,75.65
2023-02-13T06:03:54.435Z,72.00
2023-02-13T06:06:22.889Z,74.40
2023-02-13T06:08:49.908Z,69.78
2023-02-13T06:11:17.872Z,74.30
2023-02-13T06:13:45.882Z,75.70
2023-02-13T06:16:13.626Z,73.07
2023-02-13T06:18:40.839Z,75.25
2023-02-13T06:21:09.084Z,71.07
2023-02-13T06:23:36.739Z,76.60
2023-02-13T06:26:09.244Z,73.25
2023-02-13T06:28:36.420Z,76.20
2023-02-13T06:31:03.863Z,71.65
2023-02-13T06:33:31.371Z,71.28
2023-02-13T06:35:58.502Z,69.25
2023-02-13T06:38:25.764Z,74.63
2023-02-13T06:40:52.853Z,71.70
2023-02-13T06:43:19.921Z,73.80
2023-02-13T06:45:47.354Z,83.18
2023-02-13T06:48:16.814Z,74.85
2023-02-13T06:50:43.868Z,77.70
2023-02-13T06:53:11.006Z,81.97
2023-02-13T06:55:40.307Z,79.95
2023-02-13T06:58:07.453Z,77.72
2023-02-13T07:00:34.984Z,77.32
2023-02-13T07:03:06.693Z,76.10
2023-02-13T07:05:35.234Z,82.03
2023-02-13T07:08:02.316Z,80.28
2023-02-13T07:10:29.449Z,78.05
2023-02-13T07:13:05.285Z,80.30
2023-02-13T07:15:35.610Z,79.32
2023-02-13T07:18:04.128Z,85.07
2023-02-13T07:20:31.229Z,82.53
2023-02-13T07:23:00.254Z,82.38
2023-02-13T07:25:34.961Z,86.38
2023-02-13T07:28:04.325Z,82.60
2023-02-13T07:30:32.573Z,81.07
2023-02-13T07:33:05.834Z,78.03
2023-02-13T07:35:33.824Z,105.80
2023-02-13T07:38:02.114Z,88.13
2023-02-13T07:40:30.515Z,87.22
2023-02-13T07:43:01.106Z,80.00
2023-02-13T07:45:29.337Z,86.13
2023-02-13T07:47:57.376Z,88.38
2023-02-13T07:50:24.941Z,90.82
2023-02-13T07:52:58.046Z,89.72
2023-02-13T07:55:26.839Z,93.93
2023-02-13T07:57:53.757Z,94.80
2023-02-13T08:00:21.861Z,102.30
2023-02-13T08:02:49.296Z,92.88
2023-02-13T08:05:16.632Z,98.18
2023-02-13T08:07:46.139Z,99.28
2023-02-13T08:10:33.129Z,94.03
2023-02-13T08:13:00.531Z,96.82
2023-02-13T08:15:29.381Z,93.43
2023-02-13T08:17:58.007Z,89.80
2023-02-13T08:20:27.789Z,85.82
2023-02-13T08:23:06.448Z,94.47
2023-02-13T08:25:36.951Z,91.18
2023-02-13T08:28:04.251Z,87.22
2023-02-13T08:30:31.546Z,92.18
2023-02-13T08:32:58.771Z,93.93
2023-02-13T08:35:29.959Z,92.35
2023-02-13T08:37:58.083Z,87.18
2023-02-13T08:40:26.011Z,92.35
2023-02-13T08:42:53.155Z,91.40
2023-02-13T08:45:20.507Z,92.85
2023-02-13T08:47:47.644Z,91.97
2023-02-13T08:50:14.799Z,92.53
2023-02-13T08:52:43.621Z,91.65
2023-02-13T08:55:10.690Z,86.80
2023-02-13T08:57:37.966Z,87.53
2023-02-13T09:00:06.386Z,90.63
2023-02-13T09:02:34.840Z,86.35
2023-02-13T09:05:03.065Z,87.88
2023-02-13T09:07:37.564Z,96.45
2023-02-13T09:10:05.089Z,96.82
2023-02-13T09:12:32.221Z,99.80
2023-02-13T09:14:59.223Z,91.45
2023-02-13T09:17:35.758Z,95.13
2023-02-13T09:20:04.136Z,102.80
2023-02-13T09:22:31.128Z,96.97
2023-02-13T09:25:01.233Z,100.82
2023-02-13T09:27:28.282Z,92.10
2023-02-13T09:29:56.645Z,96.53
2023-02-13T09:32:24.871Z,95.95
2023-02-13T09:34:52.094Z,93.53
2023-02-13T09:37:19.383Z,96.88
2023-02-13T09:39:46.375Z,104.68
2023-02-13T09:42:26.886Z,100.50
2023-02-13T09:44:58.331Z,91.35
2023-02-13T09:47:42.683Z,92.47
2023-02-13T09:50:22.708Z,91.82
2023-02-13T09:52:52.979Z,95.93
2023-02-13T09:55:32.360Z,97.85
2023-02-13T09:58:21.039Z,93.20
2023-02-13T10:00:58.112Z,86.78
2023-02-13T10:03:56.880Z,85.35
2023-02-13T10:06:50.319Z,92.35
2023-02-13T10:09:21.334Z,90.97
2023-02-13T10:12:07.071Z,82.88
2023-02-13T10:14:43.291Z,83.00
2023-02-13T10:17:26.673Z,78.13
2023-02-13T10:20:31.352Z,74.68
2023-02-13T10:23:22.040Z,73.03
2023-02-13T10:26:00.316Z,65.53
2023-02-13T10:29:15.502Z,64.68
2023-02-13T10:31:46.355Z,49.65
2023-02-13T10:34:17.610Z,53.00
2023-02-13T10:36:49.130Z,56.42
2023-02-13T10:39:23.142Z,55.85
2023-02-13T10:41:54.804Z,52.65
2023-02-13T10:44:47.454Z,48.97
2023-02-13T10:47:14.548Z,51.92
2023-02-13T10:50:15.547Z,50.97
2023-02-13T10:53:02.196Z,49.58
2023-02-13T10:55:59.883Z,48.40
2023-02-13T10:58:32.433Z,47.60
2023-02-13T11:01:15.552Z,50.22
2023-02-13T11:03:51.305Z,48.22
2023-02-13T11:06:20.575Z,47.05
2023-02-13T11:08:48.606Z,47.83
2023-02-13T11:11:31.817Z,45.15
2023-02-13T11:14:21.363Z,53.45
2023-02-13T11:16:59.900Z,47.97
2023-02-13T11:19:53.338Z,45.50
2023-02-13T11:22:38.077Z,49.13
2023-02-13T11:27:38.522Z,44.78
2023-02-13T11:30:36.563Z,46.85
2023-02-13T11:33:07.208Z,47.75
2023-02-13T11:35:37.833Z,50.55
2023-02-13T11:38:27.497Z,43.40
2023-02-13T11:41:11.072Z,47.80
2023-02-13T11:43:48.051Z,48.67
2023-02-13T11:46:26.428Z,45.83
2023-02-13T11:49:05.640Z,46.55
2023-02-13T11:51:43.239Z,47.58
2023-02-13T11:54:31.322Z,42.50
2023-02-13T11:57:18.403Z,44.58
2023-02-13T11:59:47.964Z,47.47
2023-02-13T12:02:24.683Z,42.55
2023-02-13T12:05:13.104Z,41.67
2023-02-13T12:07:41.710Z,45.63
2023-02-13T12:10:28.886Z,47.97
2023-02-13T12:13:15.823Z,44.17
2023-02-13T12:15:44.512Z,41.70
2023-02-13T12:18:41.168Z,44.95
2023-02-13T12:21:19.258Z,42.85
2023-02-13T12:24:03.823Z,41.67
2023-02-13T12:26:30.873Z,42.03
2023-02-13T12:29:08.853Z,41.08
2023-02-13T12:32:03.187Z,42.85
2023-02-13T12:34:42.282Z,43.65
2023-02-13T12:37:25.141Z,40.38
2023-02-13T12:40:25.052Z,41.22
2023-02-13T12:43:32.378Z,41.95
2023-02-13T12:46:39.540Z,51.58
2023-02-13T12:49:23.578Z,46.72
2023-02-13T12:52:17.741Z,41.67
2023-02-13T12:54:50.761Z,41.58
2023-02-13T12:57:43.925Z,42.22
2023-02-13T13:00:26.302Z,42.40
2023-02-13T13:03:26.932Z,41.28
2023-02-13T13:06:08.959Z,41.13
2023-02-13T13:09:13.268Z,45.00
2023-02-13T13:12:02.834Z,41.45
2023-02-13T13:14:43.290Z,40.25
2023-02-13T13:17:17.491Z,41.85
2023-02-13T13:19:56.931Z,39.15
2023-02-13T13:22:38.789Z,39.88
2023-02-13T13:25:30.618Z,38.67
2023-02-13T13:28:14.304Z,40.13
2023-02-13T13:30:43.400Z,42.90
2023-02-13T13:33:15.561Z,43.40
2023-02-13T13:35:58.760Z,42.53
2023-02-13T13:38:52.384Z,38.00
2023-02-13T13:41:24.913Z,42.20
2023-02-13T13:44:10.983Z,40.00
2023-02-13T13:46:50.794Z,34.00
2023-02-13T13:49:30.400Z,40.13
2023-02-13T13:52:29.453Z,40.28
2023-02-13T13:55:00.832Z,37.15
2023-02-13T13:57:41.407Z,36.00
2023-02-13T14:00:14.176Z,40.70
2023-02-13T14:02:49.054Z,39.35
2023-02-13T14:05:28.406Z,40.30
2023-02-13T14:08:04.428Z,39.30
2023-02-13T14:10:34.574Z,36.28
2023-02-13T14:13:03.525Z,37.38
2023-02-13T14:15:44.820Z,36.67
2023-02-13T14:18:13.114Z,38.60
2023-02-13T14:20:52.205Z,34.88
2023-02-13T14:24:04.026Z,35.20
2023-02-13T14:26:33.032Z,36.67
2023-02-13T14:29:10.401Z,38.65
2023-02-13T14:31:41.758Z,35.35
2023-02-13T14:34:20.490Z,38.30
2023-02-13T14:37:07.306Z,38.95
2023-02-13T14:39:36.348Z,36.60
2023-02-13T14:42:25.945Z,38.35
2023-02-13T14:44:58.389Z,37.83
2023-02-13T14:47:43.123Z,38.63
2023-02-13T14:50:23.991Z,41.78
2023-02-13T14:52:52.338Z,36.20
2023-02-13T14:55:40.864Z,37.13
2023-02-13T14:58:20.489Z,35.60
2023-02-13T15:01:11.004Z,34.53
2023-02-13T15:03:57.526Z,39.17
2023-02-13T15:06:49.560Z,38.33
2023-02-13T15:09:22.569Z,31.48
2023-02-13T15:11:51.714Z,36.13
2023-02-13T15:14:33.400Z,39.60
2023-02-13T15:17:18.357Z,37.83
2023-02-13T15:19:52.132Z,35.25
2023-02-13T15:22:38.666Z,36.33
2023-02-13T15:25:08.569Z,35.17
2023-02-13T15:27:44.702Z,39.28
2023-02-13T15:30:40.512Z,37.53
2023-02-13T15:33:19.543Z,37.35
2023-02-13T15:35:47.099Z,36.50
2023-02-13T15:38:44.120Z,40.70
2023-02-13T15:41:22.046Z,43.55
2023-02-13T15:43:56.841Z,34.97
2023-02-13T15:46:35.549Z,38.30
2023-02-13T15:49:14.390Z,39.25
2023-02-13T15:51:42.001Z,43.40
2023-02-13T15:54:32.216Z,37.72
2023-02-13T15:57:11.360Z,39.40
2023-02-13T15:59:40.422Z,43.15
2023-02-13T16:02:16.579Z,38.15
2023-02-13T16:04:43.970Z,39.88
2023-02-13T16:07:13.602Z,37.45
2023-02-13T16:09:40.923Z,39.22
2023-02-13T16:12:24.345Z,42.75
2023-02-13T16:14:53.958Z,40.38
2023-02-13T16:17:35.145Z,47.08
2023-02-13T16:20:08.491Z,38.97
2023-02-13T16:22:49.557Z,44.13
2023-02-13T16:25:24.606Z,38.13
2023-02-13T16:28:10.284Z,47.10
2023-02-13T16:30:41.426Z,39.58
2023-02-13T16:33:14.592Z,43.05
2023-02-13T16:35:59.934Z,42.55
2023-02-13T16:38:48.862Z,41.38
2023-02-13T16:41:33.789Z,42.15
2023-02-13T16:44:06.752Z,40.55
2023-02-13T16:46:39.887Z,45.25
2023-02-13T16:49:13.302Z,47.05
2023-02-13T16:51:54.629Z,44.20
2023-02-13T16:54:48.045Z,43.65
2023-02-13T16:57:15.537Z,39.85
2023-02-13T16:59:48.590Z,43.28
2023-02-13T17:02:27.555Z,45.47
2023-02-13T17:05:01.692Z,49.53
2023-02-13T17:07:32.101Z,48.70
2023-02-13T17:10:21.415Z,54.35
2023-02-13T17:12:50.155Z,114.65
2023-02-13T17:15:21.101Z,72.72
2023-02-13T17:17:48.495Z,61.17
2023-02-13T17:20:22.235Z,61.33
2023-02-13T17:22:52.684Z,54.38
2023-02-13T17:25:23.611Z,58.58
2023-02-13T17:27:52.532Z,54.25
2023-02-13T17:30:26.040Z,56.33
2023-02-13T17:33:13.104Z,59.50
2023-02-13T17:35:40.430Z,58.80
2023-02-13T17:38:09.598Z,57.47
2023-02-13T17:40:37.231Z,58.88
2023-02-13T17:43:06.347Z,58.17
2023-02-13T17:45:35.561Z,52.85
2023-02-13T17:48:03.144Z,60.97
2023-02-13T17:50:32.073Z,53.80
2023-02-13T17:53:02.961Z,57.03
2023-02-13T17:55:32.879Z,57.92
2023-02-13T17:58:03.131Z,63.30
2023-02-13T18:00:34.392Z,57.20
2023-02-13T18:03:03.909Z,55.60
2023-02-13T18:05:36.543Z,59.38
2023-02-13T18:08:04.257Z,54.58
2023-02-13T18:10:36.083Z,51.83
2023-02-13T18:13:06.452Z,57.08
2023-02-13T18:15:42.489Z,56.33
2023-02-13T18:18:10.979Z,55.67
2023-02-13T18:20:41.121Z,53.45
2023-02-13T18:23:09.228Z,55.53
2023-02-13T18:25:36.834Z,61.72
2023-02-13T18:28:04.274Z,61.97
2023-02-13T18:30:31.882Z,54.20
2023-02-13T18:33:00.762Z,57.13
2023-02-13T18:35:28.000Z,61.22
2023-02-13T18:37:55.966Z,59.80
2023-02-13T18:40:23.364Z,58.70
2023-02-13T18:42:51.238Z,60.10
2023-02-13T18:45:20.099Z,63.38
2023-02-13T18:47:47.330Z,66.43
2023-02-13T18:50:14.419Z,81.63
2023-02-13T18:52:41.792Z,82.07
2023-02-13T18:55:10.425Z,83.15
2023-02-13T18:57:37.895Z,73.22
2023-02-13T19:00:06.098Z,73.15
2023-02-13T19:02:33.581Z,74.20
2023-02-13T19:05:01.498Z,78.00
2023-02-13T19:07:29.412Z,76.05
2023-02-13T19:09:56.709Z,81.13
2023-02-13T19:12:23.925Z,80.38
2023-02-13T19:14:51.068Z,81.90
2023-02-13T19:17:18.353Z,76.57
2023-02-13T19:19:48.762Z,71.97
2023-02-13T19:22:16.256Z,72.40
2023-02-13T19:24:43.350Z,80.75
2023-02-13T19:27:11.690Z,68.85
2023-02-13T19:29:38.765Z,67.10
2023-02-13T19:32:05.886Z,76.82
2023-02-13T19:34:32.776Z,73.43
2023-02-13T19:37:01.287Z,72.88
2023-02-13T19:39:28.455Z,73.10
2023-02-13T19:41:57.299Z,74.07
2023-02-13T19:44:24.608Z,72.07
2023-02-13T19:46:52.050Z,74.68
2023-02-13T19:49:22.690Z,76.57
2023-02-13T19:51:51.121Z,74.78
2023-02-13T19:54:18.294Z,69.35
2023-02-13T19:56:45.594Z,66.72
2023-02-13T19:59:13.799Z,72.30
2023-02-13T20:01:43.187Z,70.07
2023-02-13T20:04:11.403Z,67.43
2023-02-13T20:06:38.773Z,66.25
2023-02-13T20:09:10.403Z,67.78
2023-02-13T20:11:38.110Z,66.72
2023-02-13T20:14:05.628Z,66.95
2023-02-13T20:16:35.863Z,65.43
2023-02-13T20:19:07.739Z,68.97
2023-02-13T20:21:35.755Z,67.43
2023-02-13T20:24:03.304Z,72.80
2023-02-13T20:26:30.841Z,65.15
2023-02-13T20:28:59.616Z,71.43
2023-02-13T20:31:29.370Z,72.50
2023-02-13T20:33:58.696Z,72.85
2023-02-13T20:36:28.669Z,78.00
2023-02-13T20:38:58.669Z,79.20
2023-02-13T20:41:28.664Z,71.95
2023-02-13T20:44:00.437Z,76.82
2023-02-13T20:46:31.218Z,75.38
2023-02-13T20:48:58.481Z,75.50
2023-02-13T20:51:25.522Z,78.57
2023-02-13T20:53:52.683Z,83.85
2023-02-13T20:56:22.421Z,90.13
2023-02-13T20:58:51.088Z,82.80
2023-02-13T21:01:23.739Z,85.80
2023-02-13T21:03:56.340Z,78.47
2023-02-13T21:06:32.210Z,83.05
2023-02-13T21:09:01.482Z,72.13
2023-02-13T21:11:30.815Z,78.60
2023-02-13T21:13:58.432Z,77.07
2023-02-13T21:16:28.598Z,74.07
2023-02-13T21:18:58.518Z,73.03
2023-02-13T21:21:28.728Z,82.05
2023-02-13T21:23:57.328Z,70.38
2023-02-13T21:26:25.252Z,69.82
2023-02-13T21:28:53.437Z,82.10
2023-02-13T21:31:24.163Z,77.13
2023-02-13T21:33:52.640Z,73.40
2023-02-13T21:36:19.807Z,74.22
2023-02-13T21:38:46.784Z,77.07
2023-02-13T21:41:18.355Z,79.00
2023-02-13T21:43:49.991Z,72.63
2023-02-13T21:46:23.099Z,78.13
2023-02-13T21:49:12.643Z,73.85
2023-02-13T21:51:40.924Z,69.68
2023-02-13T21:54:08.131Z,72.97
2023-02-13T21:56:38.721Z,74.57
2023-02-13T21:59:06.165Z,80.90
2023-02-13T22:01:53.771Z,81.68
2023-02-13T22:04:21.018Z,88.53
2023-02-13T22:06:51.251Z,84.00
2023-02-13T22:09:20.559Z,71.00
2023-02-13T22:11:47.634Z,70.45
2023-02-13T22:14:17.962Z,69.05
2023-02-13T22:16:46.032Z,81.57
2023-02-13T22:19:15.768Z,75.95
2023-02-13T22:21:43.252Z,80.40
2023-02-13T22:24:11.398Z,77.60
2023-02-13T22:26:41.114Z,79.57
2023-02-13T22:29:11.597Z,80.50
2023-02-13T22:31:39.454Z,81.60
2023-02-13T22:34:07.478Z,76.30
2023-02-13T22:36:39.426Z,80.53
2023-02-13T22:39:07.543Z,77.35
2023-02-13T22:41:34.751Z,81.43
2023-02-13T22:44:02.624Z,77.80
2023-02-13T22:46:31.807Z,70.88
2023-02-13T22:49:00.015Z,74.05
2023-02-13T22:51:32.999Z,82.50
2023-02-13T22:54:00.359Z,83.22
2023-02-13T22:56:29.062Z,75.28
2023-02-13T22:58:56.691Z,74.45
2023-02-13T23:01:25.570Z,76.75
2023-02-13T23:03:55.388Z,77.60
2023-02-13T23:06:23.451Z,74.00
2023-02-13T23:08:52.977Z,78.70
2023-02-13T23:11:41.044Z,75.47
2023-02-13T23:14:10.487Z,80.70
2023-02-13T23:17:01.480Z,83.15
2023-02-13T23:19:30.207Z,75.07
2023-02-13T23:21:58.036Z,70.47
2023-02-13T23:24:25.409Z,71.80
2023-02-13T23:26:52.508Z,72.00
2023-02-13T23:29:20.104Z,80.95
2023-02-13T23:31:47.482Z,75.22
2023-02-13T23:34:14.610Z,76.07
2023-02-13T23:36:41.629Z,79.40
2023-02-13T23:39:08.771Z,69.15
2023-02-13T23:41:35.824Z,71.40
2023-02-13T23:44:02.864Z,76.10
2023-02-13T23:46:29.934Z,71.82
2023-02-13T23:48:57.063Z,71.65
2023-02-13T23:51:25.750Z,75.55
2023-02-13T23:53:56.460Z,77.18
2023-02-13T23:56:25.344Z,75.43
2023-02-13T23:58:52.827Z,69.43
